createdAt,value
2019-06-27T00:00:26.875Z,100615.50
2019-06-27T00:01:03.058Z,100625.62
2019-06-27T00:01:39.350Z,100625.62
2019-06-27T00:02:15.541Z,100629.95
2019-06-27T00:02:51.426Z,100629.66
2019-06-27T00:03:27.518Z,100630.45
2019-06-27T00:04:03.816Z,100629.36
2019-06-27T00:04:39.809Z,100628.26
2019-06-27T00:05:15.879Z,100629.06
2019-06-27T00:05:52.035Z,100631.47
2019-06-27T00:06:28.091Z,100630.36
2019-06-27T00:07:04.099Z,100623.86
2019-06-27T00:07:40.151Z,100623.86
2019-06-27T00:08:16.264Z,100634.67
2019-06-27T00:08:52.283Z,100629.27
2019-06-27T00:09:28.370Z,100630.87
2019-06-27T00:10:04.926Z,100637.07
2019-06-27T00:10:40.797Z,100633.27
2019-06-27T00:11:16.623Z,100630.36
2019-06-27T00:11:52.999Z,100634.67
2019-06-27T00:12:29.049Z,100640.08
2019-06-27T00:13:05.082Z,100641.67
2019-06-27T00:13:41.135Z,100636.27
2019-06-27T00:14:17.392Z,100639.48
2019-06-27T00:14:53.408Z,100639.48
2019-06-27T00:15:29.272Z,100645.69
2019-06-27T00:16:05.367Z,100637.88
2019-06-27T00:16:41.354Z,100643.48
2019-06-27T00:17:17.717Z,100638.88
2019-06-27T00:17:54.065Z,100638.88
2019-06-27T00:18:29.873Z,100644.81
2019-06-27T00:19:06.138Z,100644.52
2019-06-27T00:19:42.375Z,100642.32
2019-06-27T00:20:18.956Z,100639.68
2019-06-27T00:20:58.699Z,100639.92
2019-06-27T00:21:37.525Z,100643.13
2019-06-27T00:22:14.127Z,100632.11
2019-06-27T00:22:50.337Z,100640.95
2019-06-27T00:23:29.481Z,100641.45
2019-06-27T00:24:05.881Z,100645.76
2019-06-27T00:24:41.869Z,100645.76
2019-06-27T00:25:18.298Z,100640.35
2019-06-27T00:25:54.769Z,100641.66
2019-06-27T00:26:30.926Z,100639.75
2019-06-27T00:27:06.927Z,100644.56
2019-06-27T00:27:42.871Z,100636.45
2019-06-27T00:28:19.147Z,100646.97
2019-06-27T00:28:55.125Z,100629.95
2019-06-27T00:29:31.191Z,100635.35
2019-06-27T00:30:07.463Z,100634.55
2019-06-27T00:30:43.777Z,100635.35
2019-06-27T00:31:19.965Z,100642.36
2019-06-27T00:31:56.205Z,100639.36
2019-06-27T00:32:32.357Z,100641.77
2019-06-27T00:33:08.288Z,100640.66
2019-06-27T00:33:44.473Z,100634.75
2019-06-27T00:34:20.594Z,100637.16
2019-06-27T00:34:56.597Z,100639.56
2019-06-27T00:35:32.436Z,100635.75
2019-06-27T00:36:08.546Z,100635.75
2019-06-27T00:36:44.564Z,100640.56
2019-06-27T00:37:21.073Z,100636.75
2019-06-27T00:37:57.110Z,100635.16
2019-06-27T00:38:33.424Z,100631.34
2019-06-27T00:39:09.295Z,100630.27
2019-06-27T00:39:45.192Z,100627.58
2019-06-27T00:40:21.128Z,100630.27
2019-06-27T00:40:57.220Z,100636.19
2019-06-27T00:41:33.345Z,100632.38
2019-06-27T00:42:09.149Z,100637.78
2019-06-27T00:42:45.217Z,100632.88
2019-06-27T00:43:21.617Z,100627.97
2019-06-27T00:43:58.092Z,100631.17
2019-06-27T00:44:34.304Z,100634.38
2019-06-27T00:45:10.596Z,100630.57
2019-06-27T00:45:46.757Z,100624.36
2019-06-27T00:46:23.227Z,100631.38
2019-06-27T00:46:59.296Z,100629.97
2019-06-27T00:47:35.577Z,100630.47
2019-06-27T00:48:11.836Z,100633.17
2019-06-27T00:48:47.936Z,100635.88
2019-06-27T00:49:23.866Z,100637.98
2019-06-27T00:50:00.098Z,100635.77
2019-06-27T00:50:36.387Z,100628.98
2019-06-27T00:51:12.860Z,100632.98
2019-06-27T00:51:48.826Z,100640.83
2019-06-27T00:52:24.891Z,100636.22
2019-06-27T00:53:00.969Z,100637.22
2019-06-27T00:53:37.026Z,100644.73
2019-06-27T00:54:13.122Z,100640.61
2019-06-27T00:54:49.218Z,100644.62
2019-06-27T00:55:25.384Z,100646.72
2019-06-27T00:56:01.507Z,100646.44
2019-06-27T00:56:37.654Z,100639.02
2019-06-27T00:57:14.923Z,100639.40
2019-06-27T00:57:50.993Z,100645.80
2019-06-27T00:58:27.309Z,100650.61
2019-06-27T00:59:03.470Z,100645.11
2019-06-27T00:59:39.416Z,100639.08
2019-06-27T01:00:15.655Z,100640.69
2019-06-27T01:00:51.721Z,100647.39
2019-06-27T01:01:27.813Z,100653.00
2019-06-27T01:02:04.100Z,100650.78
2019-06-27T01:02:40.253Z,100652.91
2019-06-27T01:03:16.433Z,100650.70
2019-06-27T01:03:52.534Z,100650.39
2019-06-27T01:04:28.575Z,100657.13
2019-06-27T01:05:04.506Z,100656.64
2019-06-27T01:05:40.340Z,100657.13
2019-06-27T01:06:17.863Z,100654.42
2019-06-27T01:06:54.019Z,100656.64
2019-06-27T01:07:30.234Z,100651.22
2019-06-27T01:08:06.140Z,100652.20
2019-06-27T01:08:42.031Z,100656.02
2019-06-27T01:09:18.359Z,100653.50
2019-06-27T01:09:54.148Z,100654.80
2019-06-27T01:10:30.134Z,100655.47
2019-06-27T01:11:06.152Z,100656.95
2019-06-27T01:11:42.148Z,100658.15
2019-06-27T01:12:18.131Z,100652.61
2019-06-27T01:12:54.469Z,100653.28
2019-06-27T01:13:30.603Z,100658.08
2019-06-27T01:14:06.844Z,100659.30
2019-06-27T01:14:42.868Z,100659.84
2019-06-27T01:15:18.939Z,100657.20
2019-06-27T01:15:55.198Z,100657.56
2019-06-27T01:16:31.249Z,100652.48
2019-06-27T01:17:07.186Z,100658.89
2019-06-27T01:17:43.066Z,100660.23
2019-06-27T01:18:19.251Z,100662.53
2019-06-27T01:18:55.130Z,100659.98
2019-06-27T01:19:31.062Z,100660.22
2019-06-27T01:20:07.346Z,100659.61
2019-06-27T01:20:43.659Z,100661.73
2019-06-27T01:21:19.497Z,100665.27
2019-06-27T01:21:55.365Z,100658.80
2019-06-27T01:22:31.688Z,100658.80
2019-06-27T01:23:07.649Z,100665.55
2019-06-27T01:23:45.134Z,100667.47
2019-06-27T01:24:21.489Z,100668.27
2019-06-27T01:24:57.416Z,100660.78
2019-06-27T01:25:33.404Z,100660.33
2019-06-27T01:26:09.224Z,100662.23
2019-06-27T01:26:45.009Z,100668.01
2019-06-27T01:27:29.871Z,100673.75
2019-06-27T01:27:59.287Z,100675.34
2019-06-27T01:28:35.126Z,100671.98
2019-06-27T01:29:11.481Z,100679.81
2019-06-27T01:29:48.031Z,100670.07
2019-06-27T01:30:24.139Z,100667.97
2019-06-27T01:31:00.526Z,100673.23
2019-06-27T01:31:36.615Z,100674.64
2019-06-27T01:32:12.644Z,100667.45
2019-06-27T01:32:48.461Z,100672.06
2019-06-27T01:33:24.610Z,100668.53
2019-06-27T01:34:00.944Z,100669.14
2019-06-27T01:34:36.971Z,100669.78
2019-06-27T01:35:13.543Z,100668.94
2019-06-27T01:35:49.434Z,100675.65
2019-06-27T01:36:25.240Z,100674.20
2019-06-27T01:37:01.066Z,100677.38
2019-06-27T01:37:36.896Z,100677.38
2019-06-27T01:38:12.670Z,100672.91
2019-06-27T01:38:48.499Z,100676.09
2019-06-27T01:39:24.319Z,100677.03
2019-06-27T01:40:00.165Z,100672.52
2019-06-27T01:40:36.039Z,100672.52
2019-06-27T01:41:18.439Z,100669.13
2019-06-27T01:41:54.381Z,100674.39
2019-06-27T01:42:30.219Z,100682.09
2019-06-27T01:43:06.074Z,100669.27
2019-06-27T01:43:41.928Z,100674.52
2019-06-27T01:44:35.057Z,100667.74
2019-06-27T01:45:26.276Z,100672.52
2019-06-27T01:46:02.313Z,100667.84
2019-06-27T01:46:38.153Z,100669.23
2019-06-27T01:47:14.009Z,100673.80
2019-06-27T01:47:49.857Z,100680.20
2019-06-27T01:48:25.738Z,100676.84
2019-06-27T01:49:01.604Z,100678.23
2019-06-27T01:49:37.532Z,100676.09
2019-06-27T01:50:13.710Z,100666.11
2019-06-27T01:50:49.550Z,100664.00
2019-06-27T01:51:25.414Z,100665.84
2019-06-27T01:52:01.387Z,100666.88
2019-06-27T01:52:37.196Z,100669.73
2019-06-27T01:53:13.002Z,100671.02
2019-06-27T01:53:48.865Z,100664.58
2019-06-27T01:54:24.987Z,100670.49
2019-06-27T01:55:00.953Z,100666.41
2019-06-27T01:55:36.837Z,100671.53
2019-06-27T01:56:12.637Z,100668.46
2019-06-27T01:56:48.488Z,100660.73
2019-06-27T01:57:24.319Z,100663.92
2019-06-27T01:58:00.168Z,100666.65
2019-06-27T01:58:36.070Z,100666.34
2019-06-27T01:59:12.040Z,100666.00
2019-06-27T01:59:47.839Z,100666.91
2019-06-27T02:00:23.768Z,100661.91
2019-06-27T02:01:02.826Z,100671.34
2019-06-27T02:01:37.778Z,100664.76
2019-06-27T02:02:13.607Z,100673.06
2019-06-27T02:02:49.484Z,100669.19
2019-06-27T02:03:25.350Z,100665.33
2019-06-27T02:04:01.319Z,100668.52
2019-06-27T02:04:37.456Z,100664.65
2019-06-27T02:05:13.313Z,100665.44
2019-06-27T02:05:49.201Z,100666.38
2019-06-27T02:06:25.045Z,100662.41
2019-06-27T02:07:00.903Z,100664.91
2019-06-27T02:07:36.945Z,100664.22
2019-06-27T02:08:12.790Z,100669.14
2019-06-27T02:08:48.670Z,100673.12
2019-06-27T02:09:24.480Z,100662.89
2019-06-27T02:10:00.358Z,100675.96
2019-06-27T02:10:36.225Z,100674.52
2019-06-27T02:11:12.084Z,100674.17
2019-06-27T02:11:47.937Z,100675.88
2019-06-27T02:12:23.791Z,100673.14
2019-06-27T02:12:59.646Z,100681.10
2019-06-27T02:13:35.552Z,100680.87
2019-06-27T02:14:11.400Z,100675.06
2019-06-27T02:14:47.269Z,100681.12
2019-06-27T02:15:24.315Z,100673.14
2019-06-27T02:16:00.140Z,100675.21
2019-06-27T02:16:36.025Z,100678.05
2019-06-27T02:17:11.836Z,100679.30
2019-06-27T02:17:47.687Z,100680.19
2019-06-27T02:18:23.515Z,100681.13
2019-06-27T02:18:59.388Z,100678.84
2019-06-27T02:19:35.288Z,100681.23
2019-06-27T02:20:13.744Z,100676.56
2019-06-27T02:20:49.601Z,100673.59
2019-06-27T02:21:25.453Z,100675.97
2019-06-27T02:22:01.671Z,100679.25
2019-06-27T02:22:39.697Z,100687.91
2019-06-27T02:23:16.144Z,100682.91
2019-06-27T02:23:52.221Z,100681.08
2019-06-27T02:24:28.138Z,100685.16
2019-06-27T02:25:03.998Z,100681.98
2019-06-27T02:25:39.902Z,100686.74
2019-06-27T02:26:15.790Z,100687.67
2019-06-27T02:26:51.736Z,100687.67
2019-06-27T02:27:27.574Z,100686.97
2019-06-27T02:28:04.579Z,100686.97
2019-06-27T02:28:40.806Z,100686.97
2019-06-27T02:29:16.632Z,100686.18
2019-06-27T02:29:52.488Z,100681.06
2019-06-27T02:30:36.048Z,100686.28
2019-06-27T02:31:11.970Z,100681.95
2019-06-27T02:31:47.803Z,100682.30
2019-06-27T02:32:23.976Z,100687.77
2019-06-27T02:32:59.915Z,100682.75
2019-06-27T02:33:35.805Z,100698.48
2019-06-27T02:34:11.786Z,100687.22
2019-06-27T02:34:47.633Z,100694.73
2019-06-27T02:35:23.625Z,100689.27
2019-06-27T02:35:59.768Z,100691.64
2019-06-27T02:36:35.632Z,100693.81
2019-06-27T02:37:13.697Z,100694.95
2019-06-27T02:37:49.563Z,100695.41
2019-06-27T02:38:25.403Z,100688.70
2019-06-27T02:39:01.263Z,100691.75
2019-06-27T02:39:37.066Z,100691.09
2019-06-27T02:40:13.116Z,100700.09
2019-06-27T02:40:48.947Z,100687.67
2019-06-27T02:41:24.779Z,100701.56
2019-06-27T02:42:00.712Z,100691.11
2019-06-27T02:42:36.625Z,100696.13
2019-06-27T02:43:12.560Z,100697.52
2019-06-27T02:43:48.534Z,100698.84
2019-06-27T02:44:24.369Z,100697.95
2019-06-27T02:45:00.197Z,100700.84
2019-06-27T02:45:36.234Z,100695.64
2019-06-27T02:46:12.214Z,100698.11
2019-06-27T02:46:48.220Z,100697.58
2019-06-27T02:47:24.025Z,100698.34
2019-06-27T02:48:00.020Z,100690.60
2019-06-27T02:48:35.890Z,100690.72
2019-06-27T02:49:11.720Z,100687.91
2019-06-27T02:49:50.312Z,100682.70
2019-06-27T02:50:25.258Z,100687.48
2019-06-27T02:51:01.130Z,100690.88
2019-06-27T02:51:36.950Z,100692.48
2019-06-27T02:52:12.806Z,100689.06
2019-06-27T02:52:48.650Z,100680.87
2019-06-27T02:53:24.498Z,100691.57
2019-06-27T02:54:00.309Z,100688.16
2019-06-27T02:54:36.148Z,100684.73
2019-06-27T02:55:11.997Z,100688.16
2019-06-27T02:55:47.949Z,100687.48
2019-06-27T02:56:23.794Z,100692.48
2019-06-27T02:56:59.701Z,100689.52
2019-06-27T02:57:35.512Z,100692.48
2019-06-27T02:58:28.757Z,100684.06
2019-06-27T02:58:49.096Z,100686.93
2019-06-27T02:59:24.936Z,100682.27
2019-06-27T03:00:00.864Z,100673.83
2019-06-27T03:00:36.734Z,100682.27
2019-06-27T03:01:12.569Z,100679.29
2019-06-27T03:01:48.515Z,100672.79
2019-06-27T03:02:24.330Z,100681.44
2019-06-27T03:03:00.151Z,100680.74
2019-06-27T03:03:36.042Z,100677.66
2019-06-27T03:04:11.883Z,100678.59
2019-06-27T03:04:47.829Z,100678.59
2019-06-27T03:05:23.933Z,100687.23
2019-06-27T03:05:59.730Z,100683.12
2019-06-27T03:06:35.585Z,100678.89
2019-06-27T03:07:11.828Z,100681.98
2019-06-27T03:07:47.715Z,100683.70
2019-06-27T03:08:23.705Z,100688.91
2019-06-27T03:08:59.538Z,100686.08
2019-06-27T03:09:35.765Z,100687.91
2019-06-27T03:10:11.826Z,100684.91
2019-06-27T03:10:47.912Z,100684.22
2019-06-27T03:11:23.767Z,100682.38
2019-06-27T03:12:00.625Z,100686.00
2019-06-27T03:12:36.966Z,100678.81
2019-06-27T03:13:12.976Z,100679.35
2019-06-27T03:13:48.882Z,100681.29
2019-06-27T03:14:24.764Z,100673.18
2019-06-27T03:15:00.622Z,100670.00
2019-06-27T03:15:36.478Z,100685.70
2019-06-27T03:16:12.333Z,100676.36
2019-06-27T03:16:48.234Z,100674.77
2019-06-27T03:17:24.043Z,100677.31
2019-06-27T03:17:59.900Z,100671.59
2019-06-27T03:18:35.904Z,100674.77
2019-06-27T03:19:11.813Z,100672.95
2019-06-27T03:19:48.001Z,100675.21
2019-06-27T03:20:24.416Z,100676.58
2019-06-27T03:21:00.217Z,100666.55
2019-06-27T03:21:36.054Z,100675.55
2019-06-27T03:22:12.090Z,100679.08
2019-06-27T03:22:48.042Z,100674.28
2019-06-27T03:23:24.012Z,100672.02
2019-06-27T03:23:59.873Z,100668.13
2019-06-27T03:24:35.727Z,100668.22
2019-06-27T03:25:11.782Z,100674.94
2019-06-27T03:25:47.651Z,100667.52
2019-06-27T03:26:23.497Z,100668.31
2019-06-27T03:26:59.348Z,100678.55
2019-06-27T03:27:35.150Z,100673.52
2019-06-27T03:28:11.754Z,100670.34
2019-06-27T03:28:53.149Z,100676.70
2019-06-27T03:29:25.957Z,100666.02
2019-06-27T03:30:01.820Z,100674.67
2019-06-27T03:30:37.757Z,100673.26
2019-06-27T03:31:13.698Z,100676.26
2019-06-27T03:31:49.664Z,100680.32
2019-06-27T03:32:26.071Z,100667.78
2019-06-27T03:33:02.842Z,100672.38
2019-06-27T03:33:39.183Z,100669.38
2019-06-27T03:34:15.097Z,100678.73
2019-06-27T03:34:51.027Z,100675.76
2019-06-27T03:35:30.570Z,100666.48
2019-06-27T03:36:07.030Z,100668.52
2019-06-27T03:36:42.936Z,100664.98
2019-06-27T03:37:19.365Z,100672.75
2019-06-27T03:37:55.647Z,100671.61
2019-06-27T03:38:32.069Z,100665.25
2019-06-27T03:39:08.300Z,100667.98
2019-06-27T03:39:44.269Z,100663.91
2019-06-27T03:40:20.138Z,100666.98
2019-06-27T03:40:56.565Z,100664.52
2019-06-27T03:41:32.678Z,100666.91
2019-06-27T03:42:08.995Z,100656.66
2019-06-27T03:42:44.885Z,100663.28
2019-06-27T03:43:21.294Z,100659.40
2019-06-27T03:43:58.246Z,100659.84
2019-06-27T03:44:34.502Z,100659.13
2019-06-27T03:45:15.340Z,100663.91
2019-06-27T03:45:48.014Z,100664.81
2019-06-27T03:46:23.933Z,100664.10
2019-06-27T03:47:00.310Z,100667.28
2019-06-27T03:47:36.284Z,100659.52
2019-06-27T03:48:12.272Z,100668.88
2019-06-27T03:48:48.603Z,100664.63
2019-06-27T03:49:24.472Z,100661.81
2019-06-27T03:50:00.716Z,100664.10
2019-06-27T03:50:36.806Z,100666.05
2019-06-27T03:51:13.120Z,100659.42
2019-06-27T03:51:49.036Z,100668.08
2019-06-27T03:52:25.637Z,100664.10
2019-06-27T03:53:01.698Z,100668.16
2019-06-27T03:53:38.066Z,100665.42
2019-06-27T03:54:14.320Z,100661.98
2019-06-27T03:54:50.547Z,100661.73
2019-06-27T03:55:26.536Z,100655.55
2019-06-27T03:56:04.549Z,100662.17
2019-06-27T03:56:40.528Z,100665.39
2019-06-27T03:57:16.606Z,100664.91
2019-06-27T03:57:52.771Z,100665.39
2019-06-27T03:58:28.865Z,100672.45
2019-06-27T03:59:12.327Z,100661.50
2019-06-27T03:59:43.931Z,100659.00
2019-06-27T04:00:26.814Z,100659.00
2019-06-27T04:01:02.812Z,100654.13
2019-06-27T04:01:39.582Z,100666.34
2019-06-27T04:02:15.443Z,100663.59
2019-06-27T04:02:51.414Z,100657.77
2019-06-27T04:03:27.481Z,100663.40
2019-06-27T04:04:03.417Z,100661.81
2019-06-27T04:04:40.457Z,100658.36
2019-06-27T04:05:17.031Z,100666.58
2019-06-27T04:05:52.991Z,100661.64
2019-06-27T04:06:28.842Z,100663.91
2019-06-27T04:07:04.761Z,100659.13
2019-06-27T04:07:44.190Z,100655.16
2019-06-27T04:08:20.032Z,100652.08
2019-06-27T04:08:55.877Z,100655.95
2019-06-27T04:09:31.836Z,100651.02
2019-06-27T04:10:08.007Z,100645.55
2019-06-27T04:10:43.921Z,100654.24
2019-06-27T04:11:19.881Z,100647.86
2019-06-27T04:11:55.769Z,100653.59
2019-06-27T04:12:31.788Z,100650.41
2019-06-27T04:13:07.739Z,100643.80
2019-06-27T04:13:44.082Z,100646.53
2019-06-27T04:14:19.893Z,100643.80
2019-06-27T04:15:00.312Z,100649.12
2019-06-27T04:15:36.700Z,100642.06
2019-06-27T04:16:12.554Z,100650.80
2019-06-27T04:16:49.470Z,100647.72
2019-06-27T04:17:25.794Z,100642.80
2019-06-27T04:18:02.464Z,100642.09
2019-06-27T04:18:38.553Z,100640.25
2019-06-27T04:19:14.366Z,100645.89
2019-06-27T04:19:51.084Z,100641.77
2019-06-27T04:20:27.502Z,100634.44
2019-06-27T04:21:03.395Z,100624.48
2019-06-27T04:21:39.710Z,100635.07
2019-06-27T04:22:17.639Z,100633.22
2019-06-27T04:22:53.316Z,100638.01
2019-06-27T04:23:29.268Z,100628.28
2019-06-27T04:24:05.417Z,100630.23
2019-06-27T04:24:41.412Z,100630.67
2019-06-27T04:25:17.549Z,100633.33
2019-06-27T04:25:53.929Z,100633.33
2019-06-27T04:26:29.910Z,100630.91
2019-06-27T04:27:05.947Z,100630.23
2019-06-27T04:27:42.579Z,100632.61
2019-06-27T04:28:18.437Z,100634.13
2019-06-27T04:28:54.290Z,100627.94
2019-06-27T04:29:34.042Z,100624.05
2019-06-27T04:30:08.031Z,100622.53
2019-06-27T04:30:43.968Z,100626.50
2019-06-27T04:31:19.820Z,100630.83
2019-06-27T04:31:55.643Z,100628.80
2019-06-27T04:32:31.476Z,100629.68
2019-06-27T04:33:07.326Z,100629.76
2019-06-27T04:33:43.862Z,100629.40
2019-06-27T04:34:20.393Z,100628.69
2019-06-27T04:34:56.540Z,100633.02
2019-06-27T04:35:33.637Z,100629.84
2019-06-27T04:36:09.539Z,100632.22
2019-06-27T04:36:45.935Z,100625.87
2019-06-27T04:37:22.131Z,100622.61
2019-06-27T04:37:58.105Z,100621.91
2019-06-27T04:38:33.934Z,100617.14
2019-06-27T04:39:09.771Z,100622.61
2019-06-27T04:39:45.626Z,100618.72
2019-06-27T04:40:21.841Z,100618.02
2019-06-27T04:40:57.778Z,100617.66
2019-06-27T04:41:33.919Z,100617.14
2019-06-27T04:42:10.156Z,100619.44
2019-06-27T04:42:46.053Z,100617.06
2019-06-27T04:43:21.917Z,100615.03
2019-06-27T04:43:58.258Z,100613.88
2019-06-27T04:44:34.428Z,100611.50
2019-06-27T04:45:10.370Z,100616.98
2019-06-27T04:45:46.249Z,100608.41
2019-06-27T04:46:22.916Z,100611.50
2019-06-27T04:46:59.354Z,100616.11
2019-06-27T04:47:35.357Z,100619.96
2019-06-27T04:48:11.221Z,100614.77
2019-06-27T04:48:47.288Z,100620.67
2019-06-27T04:49:23.259Z,100623.84
2019-06-27T04:49:59.112Z,100619.09
2019-06-27T04:50:35.196Z,100613.61
2019-06-27T04:51:11.107Z,100612.02
2019-06-27T04:51:47.019Z,100611.12
2019-06-27T04:52:23.096Z,100612.27
2019-06-27T04:52:58.983Z,100617.39
2019-06-27T04:53:34.997Z,100608.84
2019-06-27T04:54:11.897Z,100610.88
2019-06-27T04:54:47.996Z,100611.31
2019-06-27T04:55:24.057Z,100622.27
2019-06-27T04:55:59.894Z,100612.81
2019-06-27T04:56:35.867Z,100612.81
2019-06-27T04:57:11.748Z,100612.90
2019-06-27T04:57:48.076Z,100604.44
2019-06-27T04:58:24.372Z,100608.05
2019-06-27T04:59:00.242Z,100606.19
2019-06-27T04:59:51.836Z,100608.48
2019-06-27T05:00:18.869Z,100608.28
2019-06-27T05:00:54.742Z,100608.83
2019-06-27T05:01:30.657Z,100613.59
2019-06-27T05:02:06.789Z,100605.38
2019-06-27T05:02:42.826Z,100602.63
2019-06-27T05:03:19.341Z,100608.98
2019-06-27T05:03:55.816Z,100610.31
2019-06-27T05:04:32.159Z,100603.86
2019-06-27T05:05:08.404Z,100603.94
2019-06-27T05:05:44.561Z,100604.73
2019-06-27T05:06:20.799Z,100599.97
2019-06-27T05:06:56.746Z,100606.68
2019-06-27T05:07:32.790Z,100603.94
2019-06-27T05:08:08.699Z,100607.73
2019-06-27T05:08:44.559Z,100604.55
2019-06-27T05:09:20.397Z,100603.69
2019-06-27T05:09:56.221Z,100599.69
2019-06-27T05:10:32.068Z,100598.03
2019-06-27T05:11:07.902Z,100603.43
2019-06-27T05:11:43.721Z,100603.50
2019-06-27T05:12:19.576Z,100600.77
2019-06-27T05:12:55.398Z,100596.61
2019-06-27T05:13:31.200Z,100603.88
2019-06-27T05:14:06.991Z,100598.17
2019-06-27T05:14:42.881Z,100601.87
2019-06-27T05:15:18.709Z,100596.28
2019-06-27T05:15:54.553Z,100594.53
2019-06-27T05:16:30.410Z,100598.33
2019-06-27T05:17:06.238Z,100590.11
2019-06-27T05:17:42.204Z,100599.97
2019-06-27T05:18:18.106Z,100596.00
2019-06-27T05:18:53.896Z,100592.70
2019-06-27T05:19:29.746Z,100602.06
2019-06-27T05:20:05.867Z,100589.73
2019-06-27T05:20:41.675Z,100592.85
2019-06-27T05:21:17.617Z,100589.92
2019-06-27T05:21:53.449Z,100592.06
2019-06-27T05:22:29.561Z,100586.67
2019-06-27T05:23:05.401Z,100582.44
2019-06-27T05:23:41.274Z,100595.41
2019-06-27T05:24:17.129Z,100594.69
2019-06-27T05:24:52.955Z,100586.76
2019-06-27T05:25:29.866Z,100586.76
2019-06-27T05:26:06.083Z,100580.05
2019-06-27T05:26:41.918Z,100585.86
2019-06-27T05:27:17.731Z,100584.33
2019-06-27T05:27:53.564Z,100582.09
2019-06-27T05:28:29.440Z,100580.31
2019-06-27T05:29:05.238Z,100572.60
2019-06-27T05:29:41.086Z,100578.33
2019-06-27T05:30:17.021Z,100579.22
2019-06-27T05:30:52.908Z,100573.88
2019-06-27T05:31:28.899Z,100569.88
2019-06-27T05:32:04.754Z,100570.57
2019-06-27T05:32:40.534Z,100574.66
2019-06-27T05:33:16.349Z,100573.27
2019-06-27T05:33:52.474Z,100565.50
2019-06-27T05:34:28.358Z,100568.41
2019-06-27T05:35:04.228Z,100562.23
2019-06-27T05:35:40.118Z,100570.09
2019-06-27T05:36:15.935Z,100566.33
2019-06-27T05:36:51.803Z,100566.56
2019-06-27T05:37:27.647Z,100561.56
2019-06-27T05:38:03.504Z,100564.03
2019-06-27T05:38:39.258Z,100557.42
2019-06-27T05:39:15.071Z,100564.48
2019-06-27T05:39:50.872Z,100558.65
2019-06-27T05:40:26.683Z,100558.06
2019-06-27T05:41:02.560Z,100560.68
2019-06-27T05:41:38.424Z,100556.27
2019-06-27T05:42:14.242Z,100562.00
2019-06-27T05:42:50.050Z,100560.42
2019-06-27T05:43:26.135Z,100554.95
2019-06-27T05:44:02.134Z,100557.42
2019-06-27T05:44:38.059Z,100555.74
2019-06-27T05:45:13.889Z,100557.92
2019-06-27T05:45:49.742Z,100551.56
2019-06-27T05:46:25.577Z,100555.80
2019-06-27T05:47:01.438Z,100550.69
2019-06-27T05:47:37.356Z,100552.97
2019-06-27T05:48:13.150Z,100551.39
2019-06-27T05:48:48.994Z,100552.18
2019-06-27T05:49:24.851Z,100547.42
2019-06-27T05:50:00.682Z,100543.62
2019-06-27T05:50:36.533Z,100546.36
2019-06-27T05:51:12.360Z,100546.63
2019-06-27T05:51:48.199Z,100548.13
2019-06-27T05:52:23.999Z,100546.41
2019-06-27T05:52:59.912Z,100536.63
2019-06-27T05:53:35.813Z,100538.95
2019-06-27T05:54:11.632Z,100535.86
2019-06-27T05:54:47.441Z,100537.45
2019-06-27T05:55:23.256Z,100530.13
2019-06-27T05:55:59.093Z,100532.95
2019-06-27T05:56:34.904Z,100535.16
2019-06-27T05:57:10.741Z,100533.39
2019-06-27T05:57:46.627Z,100532.51
2019-06-27T05:58:22.688Z,100534.80
2019-06-27T05:58:58.614Z,100534.59
2019-06-27T05:59:34.494Z,100536.18
2019-06-27T06:00:26.882Z,100534.80
2019-06-27T06:00:48.254Z,100531.55
2019-06-27T06:01:24.090Z,100531.45
2019-06-27T06:02:00.220Z,100530.92
2019-06-27T06:02:36.281Z,100528.42
2019-06-27T06:03:12.145Z,100528.69
2019-06-27T06:03:48.031Z,100526.62
2019-06-27T06:04:24.219Z,100529.61
2019-06-27T06:05:00.167Z,100530.31
2019-06-27T06:05:35.961Z,100522.34
2019-06-27T06:06:11.972Z,100524.98
2019-06-27T06:06:48.316Z,100530.36
2019-06-27T06:07:24.221Z,100527.63
2019-06-27T06:08:00.122Z,100527.94
2019-06-27T06:08:36.016Z,100526.62
2019-06-27T06:09:11.957Z,100524.55
2019-06-27T06:09:47.805Z,100522.46
2019-06-27T06:10:23.629Z,100525.81
2019-06-27T06:10:59.457Z,100522.92
2019-06-27T06:11:35.285Z,100526.02
2019-06-27T06:12:11.184Z,100523.01
2019-06-27T06:12:46.983Z,100517.03
2019-06-27T06:13:22.879Z,100520.40
2019-06-27T06:13:58.885Z,100518.97
2019-06-27T06:14:34.801Z,100515.17
2019-06-27T06:15:10.693Z,100519.84
2019-06-27T06:15:46.767Z,100525.48
2019-06-27T06:16:22.608Z,100519.77
2019-06-27T06:16:58.455Z,100515.52
2019-06-27T06:17:34.395Z,100514.72
2019-06-27T06:18:10.192Z,100509.06
2019-06-27T06:18:46.050Z,100508.70
2019-06-27T06:19:21.868Z,100506.52
2019-06-27T06:19:57.784Z,100507.81
2019-06-27T06:20:33.575Z,100506.41
2019-06-27T06:21:09.441Z,100502.53
2019-06-27T06:21:45.354Z,100502.24
2019-06-27T06:22:21.249Z,100500.41
2019-06-27T06:22:57.198Z,100502.86
2019-06-27T06:23:33.129Z,100503.72
2019-06-27T06:24:08.968Z,100502.92
2019-06-27T06:24:44.947Z,100504.52
2019-06-27T06:25:20.741Z,100499.11
2019-06-27T06:25:56.625Z,100498.39
2019-06-27T06:26:32.480Z,100498.39
2019-06-27T06:27:08.410Z,100496.08
2019-06-27T06:27:44.245Z,100491.33
2019-06-27T06:28:20.200Z,100497.95
2019-06-27T06:28:56.018Z,100492.48
2019-06-27T06:29:31.860Z,100493.63
2019-06-27T06:30:08.479Z,100489.73
2019-06-27T06:30:45.359Z,100492.84
2019-06-27T06:31:21.358Z,100488.22
2019-06-27T06:31:57.193Z,100488.22
2019-06-27T06:32:32.967Z,100491.33
2019-06-27T06:33:08.790Z,100490.03
2019-06-27T06:33:44.665Z,100484.84
2019-06-27T06:34:20.845Z,100487.86
2019-06-27T06:34:56.639Z,100489.27
2019-06-27T06:35:32.491Z,100486.89
2019-06-27T06:36:08.323Z,100485.20
2019-06-27T06:36:44.214Z,100488.22
2019-06-27T06:37:20.176Z,100487.07
2019-06-27T06:37:56.006Z,100486.28
2019-06-27T06:38:31.846Z,100480.02
2019-06-27T06:39:07.670Z,100483.03
2019-06-27T06:39:43.636Z,100483.03
2019-06-27T06:40:19.676Z,100479.58
2019-06-27T06:40:55.513Z,100479.94
2019-06-27T06:41:31.446Z,100475.69
2019-06-27T06:42:07.241Z,100478.42
2019-06-27T06:42:43.203Z,100474.11
2019-06-27T06:43:19.049Z,100475.25
2019-06-27T06:43:54.911Z,100471.80
2019-06-27T06:44:30.766Z,100481.23
2019-06-27T06:45:06.752Z,100475.84
2019-06-27T06:45:42.577Z,100469.67
2019-06-27T06:46:18.816Z,100474.25
2019-06-27T06:46:54.646Z,100478.32
2019-06-27T06:47:30.453Z,100474.43
2019-06-27T06:48:06.261Z,100477.61
2019-06-27T06:48:42.280Z,100474.87
2019-06-27T06:49:18.110Z,100467.37
2019-06-27T06:49:53.963Z,100476.66
2019-06-27T06:50:29.798Z,100474.17
2019-06-27T06:51:05.707Z,100476.84
2019-06-27T06:51:41.505Z,100470.50
2019-06-27T06:52:17.343Z,100480.30
2019-06-27T06:52:53.259Z,100470.06